Keavy, Kentucky
Current Conditions -  °F | °C
As of 3:53 PM on Sunday 23 Nov 2014 (Local Time) from KLOZ Reporting Station
Light Rain Light Rain  
Wind Chill: 15°   Ceiling: 11000
Heat Index: 15°   Visibility: 10mi
Dew Point: 10°   Wind: 10mph
Humidity: 72%   Direction: 130°SE
Pressure: 29.64"   Gusts: 18mph
Location:  37°N, 84.16°W
Report Text: KLOZ 232053Z AUTO 13009G16KT 10SM -RA BKN110 15/10 A2964 RMK AO2 RAB53 SLP033 P0000 60012 T01500100 58063
Loading
Personal Weather Stations






























Interactive Weather Map New forecast layout! Learn more

10-Day Weather Forecast

Advertisements
Track Severe Weather on mobile